Triumph II — WY6769 — position and weather

sailwx.info

Track history (hours):
 
Tides and Currents Weather Stations Pressure Air Temp Water Temp Dewpoint Dewpoint Depression Visibility Wind Speed Wind Dir Waves Ship Positions

Triumph II

Owner: ANCHORAGE LAUNCH SERVICE CO, PORTLAND, OR. More information available from US FCC via Universal Licensing System.

Last reported at 2017-Oct-20 02:59 UTC. Time now 2017-Oct-20 03:06 UTC.
Position N 46°12' W 123°48'.

Length 19 m.

Type: Passenger vessel. MMSI: 366970430.

Date/timePositionNaut miles runAvg speedWind from/ knotsBaromVisibWave heightAir tempDewpointWater temp
2017-Oct-20 02:59N 46°12' W 123°48'0 0.0
2017-Oct-20 02:29N 46°12' W 123°48'0 0.0
2017-Oct-20 01:59N 46°12' W 123°48'0 0.0
2017-Oct-20 01:29N 46°12' W 123°48'0 0.0
2017-Oct-20 00:56N 46°12' W 123°48'0 0.0
2017-Oct-20 00:29N 46°12' W 123°48'0 0.0
2017-Oct-19 23:59N 46°12' W 123°48'0 0.0
2017-Oct-19 23:29N 46°12' W 123°48'0 0.0
2017-Oct-19 22:59N 46°12' W 123°48'0 0.0
2017-Oct-19 22:29N 46°12' W 123°48'0 0.0
2017-Oct-19 21:56N 46°12' W 123°48'0 0.0
2017-Oct-19 21:29N 46°12' W 123°48'0 0.0
2017-Oct-19 20:59N 46°12' W 123°48'0 0.0
2017-Oct-19 20:29N 46°12' W 123°48'0 0.0
2017-Oct-19 19:59N 46°12' W 123°48'3 6.3
2017-Oct-19 19:30N 46°14' W 123°45'1 2.1
2017-Oct-19 19:00N 46°14' W 123°43'0 0.1
2017-Oct-19 18:28N 46°14' W 123°44'0 0.1
2017-Oct-19 17:59N 46°14' W 123°43'4 9.0
2017-Oct-19 17:30N 46°12' W 123°49'0 0.1
2017-Oct-19 17:00N 46°12' W 123°49'1 1.6
2017-Oct-19 16:28N 46°11' W 123°50'1 2.1
2017-Oct-19 16:00N 46°12' W 123°48'0 0.0
2017-Oct-19 15:30N 46°12' W 123°48'0 0.0
2017-Oct-19 15:00N 46°12' W 123°48'0 0.0
2017-Oct-19 14:27N 46°12' W 123°48'0 0.0
2017-Oct-19 13:51N 46°12' W 123°48'0 0.0
2017-Oct-19 13:30N 46°12' W 123°48'0 0.0
2017-Oct-19 13:00N 46°12' W 123°48'0 0.0
2017-Oct-19 12:27N 46°12' W 123°48'0 0.0
2017-Oct-19 12:00N 46°12' W 123°48'0 0.0
2017-Oct-19 11:30N 46°12' W 123°48'0 0.0
2017-Oct-19 10:57N 46°12' W 123°48'0 0.0
2017-Oct-19 10:30N 46°12' W 123°48'0 0.0
2017-Oct-19 09:57N 46°12' W 123°48'0 0.0
2017-Oct-19 09:30N 46°12' W 123°48'0 0.0
2017-Oct-19 09:00N 46°12' W 123°48'0 0.0
2017-Oct-19 08:30N 46°12' W 123°48'0 0.0
2017-Oct-19 08:00N 46°12' W 123°48'0 0.0
2017-Oct-19 07:30N 46°12' W 123°48'0 0.0
2017-Oct-19 07:00N 46°12' W 123°48'0 0.0
2017-Oct-19 06:30N 46°12' W 123°48'0 0.0
2017-Oct-19 06:00N 46°12' W 123°48'0 0.0
2017-Oct-19 05:30N 46°12' W 123°48'0 0.0
2017-Oct-19 04:48N 46°12' W 123°48'0 0.0
2017-Oct-19 04:30N 46°12' W 123°48'0 0.0
2017-Oct-19 04:00N 46°12' W 123°48'0 0.0
2017-Oct-19 03:27N 46°12' W 123°48'0 0.0
2017-Oct-19 03:00N 46°12' W 123°48'0 0.0
2017-Oct-19 02:30N 46°12' W 123°48'0 0.0
2017-Oct-19 01:57N 46°12' W 123°48'0 0.0
2017-Oct-19 01:30N 46°12' W 123°48'0 0.0
2017-Oct-19 01:00N 46°12' W 123°48'0 0.0
2017-Oct-19 00:30N 46°12' W 123°48'0 0.0
2017-Oct-19 00:00N 46°12' W 123°48'0 0.0
2017-Oct-18 23:30N 46°12' W 123°48'0 0.0
2017-Oct-18 23:00N 46°12' W 123°48'0 0.0
2017-Oct-18 22:30N 46°12' W 123°48'0 0.0
2017-Oct-18 21:57N 46°12' W 123°48'0 0.0
2017-Oct-18 21:24N 46°12' W 123°48'0 0.0
2017-Oct-18 21:00N 46°12' W 123°48'0 0.0
2017-Oct-18 20:29N 46°12' W 123°48'0 0.0
2017-Oct-18 19:59N 46°12' W 123°48'0 0.0
2017-Oct-18 19:29N 46°12' W 123°48'0 0.0
2017-Oct-18 18:59N 46°12' W 123°48'0 0.0
2017-Oct-18 18:29N 46°12' W 123°48'0 0.0
2017-Oct-18 17:59N 46°12' W 123°48'0 0.0
2017-Oct-18 17:29N 46°12' W 123°48'0 0.0
2017-Oct-18 16:59N 46°12' W 123°48'0 0.0
2017-Oct-18 16:29N 46°12' W 123°48'0 0.0
2017-Oct-18 15:50N 46°12' W 123°48'0 0.0
2017-Oct-18 15:23N 46°12' W 123°48'0 0.0
2017-Oct-18 14:59N 46°12' W 123°48'0 0.0
2017-Oct-18 13:59N 46°12' W 123°48'0 0.0
2017-Oct-18 13:29N 46°12' W 123°48'0 0.0
2017-Oct-18 12:41N 46°12' W 123°48'0 0.0
2017-Oct-18 12:26N 46°12' W 123°48'0 0.0
2017-Oct-18 11:59N 46°12' W 123°48'0 0.0
2017-Oct-18 11:29N 46°12' W 123°48'0 0.0
2017-Oct-18 10:59N 46°12' W 123°48'0 0.0
2017-Oct-18 10:29N 46°12' W 123°48'0 0.0
2017-Oct-18 09:59N 46°12' W 123°48'0 0.0
2017-Oct-18 09:29N 46°12' W 123°48'0 0.0
2017-Oct-18 08:47N 46°12' W 123°48'0 0.0
2017-Oct-18 08:17N 46°12' W 123°48'0 0.0
2017-Oct-18 07:59N 46°12' W 123°48'0 0.0
2017-Oct-18 07:29N 46°12' W 123°48'0 0.0
2017-Oct-18 06:59N 46°12' W 123°48'0 0.0
2017-Oct-18 06:29N 46°12' W 123°48'0 0.0
2017-Oct-18 05:50N 46°12' W 123°48'0 0.0
2017-Oct-18 05:29N 46°12' W 123°48'0 0.0
2017-Oct-18 04:59N 46°12' W 123°48'0 0.0
2017-Oct-18 04:29N 46°12' W 123°48'0 0.0
2017-Oct-18 03:59N 46°12' W 123°48'0 0.0
2017-Oct-18 03:29N 46°12' W 123°48'0 0.0
2017-Oct-18 02:59N 46°12' W 123°48'0 0.0
2017-Oct-18 02:29N 46°12' W 123°48'0 0.0
2017-Oct-18 01:56N 46°12' W 123°48'0 0.0
2017-Oct-18 01:29N 46°12' W 123°48'0 0.0
2017-Oct-18 00:59N 46°12' W 123°48'0 0.0
2017-Oct-18 00:29N 46°12' W 123°48'1 2.3
2017-Oct-18 00:00N 46°13' W 123°47'0 0.1
2017-Oct-17 23:30N 46°13' W 123°47'0 0.8
2017-Oct-17 23:00N 46°13' W 123°47'3 5.4
2017-Oct-17 22:30N 46°12' W 123°50'3 5.3
2017-Oct-17 22:00N 46°13' W 123°47'0 0.1
2017-Oct-17 21:30N 46°13' W 123°47'2 4.8
2017-Oct-17 21:00N 46°11' W 123°50'0 0.0
2017-Oct-17 20:30N 46°11' W 123°50'2 3.2
2017-Oct-17 20:00N 46°11' W 123°52'3 4.6
2017-Oct-17 19:27N 46°12' W 123°48'0 0.0
2017-Oct-17 19:00N 46°12' W 123°48'0 0.0
2017-Oct-17 18:30N 46°12' W 123°48'0 0.0
2017-Oct-17 18:00N 46°12' W 123°48'1 1.6
2017-Oct-17 17:30N 46°12' W 123°47'3 6.2
2017-Oct-17 17:00N 46°14' W 123°44'0 0.3
2017-Oct-17 16:14N 46°14' W 123°44'418.5
2017-Oct-17 16:00N 46°12' W 123°49'1 1.9
2017-Oct-17 15:30N 46°12' W 123°48'1 2.7
2017-Oct-17 14:58N 46°11' W 123°50'1 2.1
2017-Oct-17 14:30N 46°12' W 123°48'0 0.0
2017-Oct-17 14:00N 46°12' W 123°48'0 0.0
2017-Oct-17 13:30N 46°12' W 123°48'0 0.0
2017-Oct-17 13:00N 46°12' W 123°48'0 0.0
2017-Oct-17 12:30N 46°12' W 123°48'0 0.0
2017-Oct-17 12:00N 46°12' W 123°48'0 0.0
2017-Oct-17 11:30N 46°12' W 123°48'0 0.0
2017-Oct-17 11:00N 46°12' W 123°48'0 0.0
2017-Oct-17 10:27N 46°12' W 123°48'0 0.0
2017-Oct-17 10:00N 46°12' W 123°48'0 0.0
2017-Oct-17 09:30N 46°12' W 123°48'0 0.0
2017-Oct-17 09:00N 46°12' W 123°48'0 0.0
2017-Oct-17 08:30N 46°12' W 123°48'0 0.0
2017-Oct-17 08:00N 46°12' W 123°48'0 0.0
2017-Oct-17 07:30N 46°12' W 123°48'0 0.0
2017-Oct-17 07:00N 46°12' W 123°48'0 0.0
2017-Oct-17 06:30N 46°12' W 123°48'0 0.0
2017-Oct-17 06:00N 46°12' W 123°48'0 0.0
2017-Oct-17 05:30N 46°12' W 123°48'0 0.0
2017-Oct-17 05:00N 46°12' W 123°48'0 0.0
2017-Oct-17 04:30N 46°12' W 123°48'0 0.0
2017-Oct-17 04:00N 46°12' W 123°48'0 0.0
2017-Oct-17 03:30N 46°12' W 123°48'0 0.0
2017-Oct-17 03:00N 46°12' W 123°48'0 0.0
2017-Oct-17 02:30N 46°12' W 123°48'0 0.0
2017-Oct-17 02:00N 46°12' W 123°48'0 0.0
2017-Oct-17 01:30N 46°12' W 123°48'0 0.0
2017-Oct-17 01:00N 46°12' W 123°48'0 0.0
2017-Oct-17 00:30N 46°12' W 123°48'0 0.0
2017-Oct-17 00:00N 46°12' W 123°48'0 0.0
2017-Oct-16 23:30N 46°12' W 123°48'0 0.0
2017-Oct-16 23:00N 46°12' W 123°48'0 0.0
2017-Oct-16 22:30N 46°12' W 123°48'0 0.0
2017-Oct-16 22:00N 46°12' W 123°48'0 0.0
2017-Oct-16 21:30N 46°12' W 123°48'0 0.0
2017-Oct-16 21:00N 46°12' W 123°48'0 0.0
2017-Oct-16 20:30N 46°12' W 123°48'0 0.0
2017-Oct-16 19:57N 46°12' W 123°48'0 0.0
2017-Oct-16 19:30N 46°12' W 123°48'3 5.9
2017-Oct-16 19:00N 46°14' W 123°45'4 7.7
2017-Oct-16 18:30N 46°11' W 123°50'0 0.0
2017-Oct-16 18:00N 46°11' W 123°50'2 3.5
2017-Oct-16 17:30N 46°13' W 123°48'0 0.1
2017-Oct-16 16:59N 46°13' W 123°48'0 0.0
2017-Oct-16 16:29N 46°13' W 123°48'2 3.4
2017-Oct-16 15:59N 46°11' W 123°50'0 0.8
2017-Oct-16 15:30N 46°12' W 123°49'1 1.1
2017-Oct-16 14:55N 46°12' W 123°48'0 0.0
2017-Oct-16 14:28N 46°12' W 123°48'0 0.0
2017-Oct-16 13:28N 46°12' W 123°48'0 0.0
2017-Oct-16 12:58N 46°12' W 123°48'0 0.0
2017-Oct-16 12:28N 46°12' W 123°48'0 0.0
2017-Oct-16 11:58N 46°12' W 123°48'0 0.0
2017-Oct-16 11:28N 46°12' W 123°48'0 0.0
2017-Oct-16 10:58N 46°12' W 123°48'0 0.0
2017-Oct-16 10:28N 46°12' W 123°48'0 0.0
2017-Oct-16 09:58N 46°12' W 123°48'0 0.0
2017-Oct-16 09:28N 46°12' W 123°48'0 0.0
2017-Oct-16 08:58N 46°12' W 123°48'0 0.0
2017-Oct-16 08:28N 46°12' W 123°48'0 0.0
2017-Oct-16 07:58N 46°12' W 123°48'0 0.0
2017-Oct-16 07:01N 46°12' W 123°48'0 0.0
2017-Oct-16 06:58N 46°12' W 123°48'0 0.0
2017-Oct-16 06:28N 46°12' W 123°48'0 0.0
2017-Oct-16 05:58N 46°12' W 123°48'0 0.0
2017-Oct-16 05:28N 46°12' W 123°48'0 0.0
2017-Oct-16 04:58N 46°12' W 123°48'0 0.0
2017-Oct-16 04:28N 46°12' W 123°48'0 0.0
2017-Oct-16 03:58N 46°12' W 123°48'0 0.0
2017-Oct-16 03:28N 46°12' W 123°48'0 0.0
2017-Oct-16 02:58N 46°12' W 123°48'0 0.0
2017-Oct-16 02:28N 46°12' W 123°48'0 0.0
2017-Oct-16 01:58N 46°12' W 123°48'0 0.0
2017-Oct-16 01:28N 46°12' W 123°48'0 0.0
2017-Oct-16 00:58N 46°12' W 123°48'0 0.0
2017-Oct-16 00:22N 46°12' W 123°48'0 0.0
2017-Oct-15 23:58N 46°12' W 123°48'0 0.1
2017-Oct-15 23:30N 46°12' W 123°48'1 1.2
2017-Oct-15 23:00N 46°12' W 123°48'0 0.5
2017-Oct-15 22:29N 46°13' W 123°48'0 0.0
2017-Oct-15 21:59N 46°13' W 123°48'0 0.0
2017-Oct-15 21:30N 46°13' W 123°48'0 0.0
2017-Oct-15 20:59N 46°13' W 123°48'0 0.7
2017-Oct-15 20:29N 46°12' W 123°48'1 2.4
2017-Oct-15 20:00N 46°11' W 123°50'1 1.7
2017-Oct-15 19:24N 46°12' W 123°48'0 0.0
2017-Oct-15 18:57N 46°12' W 123°48'0 0.0
2017-Oct-15 18:30N 46°12' W 123°48'0 0.0
2017-Oct-15 18:00N 46°12' W 123°48'0 0.0
2017-Oct-15 17:30N 46°12' W 123°48'0 0.0
2017-Oct-15 17:00N 46°12' W 123°48'0 0.0
2017-Oct-15 16:30N 46°12' W 123°48'0 0.0
2017-Oct-15 16:00N 46°12' W 123°48'0 0.0
2017-Oct-15 15:30N 46°12' W 123°48'0 0.0
2017-Oct-15 15:00N 46°12' W 123°48'0 0.0
2017-Oct-15 13:51N 46°12' W 123°48'0 0.0
2017-Oct-15 13:30N 46°12' W 123°48'0 0.0
2017-Oct-15 12:57N 46°12' W 123°48'0 0.0
2017-Oct-15 12:30N 46°12' W 123°48'0 0.0
2017-Oct-15 12:00N 46°12' W 123°48'0 0.0
2017-Oct-15 11:30N 46°12' W 123°48'0 0.0
2017-Oct-15 11:00N 46°12' W 123°48'0 0.0
2017-Oct-15 10:30N 46°12' W 123°48'0 0.0
2017-Oct-15 10:00N 46°12' W 123°48'0 0.0
2017-Oct-15 09:30N 46°12' W 123°48'0 0.0
2017-Oct-15 08:57N 46°12' W 123°48'0 0.0
2017-Oct-15 08:30N 46°12' W 123°48'0 0.0
2017-Oct-15 08:00N 46°12' W 123°48'0 0.0
2017-Oct-15 07:30N 46°12' W 123°48'0 0.0
2017-Oct-15 07:00N 46°12' W 123°48'0 0.0
2017-Oct-15 06:30N 46°12' W 123°48'0 0.0
2017-Oct-15 06:00N 46°12' W 123°48'0 0.0
2017-Oct-15 05:30N 46°12' W 123°48'0 0.0
2017-Oct-15 05:00N 46°12' W 123°48'0 0.0
2017-Oct-15 04:30N 46°12' W 123°48'0 0.0
2017-Oct-15 04:00N 46°12' W 123°48'0 0.0
2017-Oct-15 03:30N 46°12' W 123°48'0 0.0
2017-Oct-15 03:00N 46°12' W 123°48'0 0.0
2017-Oct-15 02:30N 46°12' W 123°48'1 1.2
2017-Oct-15 01:41N 46°11' W 123°50'1 1.6
2017-Oct-15 01:20N 46°12' W 123°50'0 0.6
2017-Oct-15 01:00N 46°12' W 123°50'0 0.5
2017-Oct-15 00:30N 46°12' W 123°50'0 0.2
2017-Oct-14 23:58N 46°12' W 123°50'0 0.0
2017-Oct-14 23:28N 46°12' W 123°50'1 0.9
2017-Oct-14 22:52N 46°11' W 123°50'1 2.5
2017-Oct-14 22:28N 46°12' W 123°48'0 0.0
2017-Oct-14 21:58N 46°12' W 123°48'0 0.0
2017-Oct-14 21:28N 46°12' W 123°48'0 0.0
2017-Oct-14 20:58N 46°12' W 123°48'0 0.0
2017-Oct-14 20:30N 46°12' W 123°48'3 5.4
2017-Oct-14 20:00N 46°13' W 123°45'2 4.9
2017-Oct-14 19:30N 46°12' W 123°48'4 7.2
2017-Oct-14 19:00N 46°14' W 123°44'0 0.1
2017-Oct-14 18:30N 46°14' W 123°44'0 0.1
2017-Oct-14 18:00N 46°14' W 123°44'0 0.2
2017-Oct-14 17:30N 46°14' W 123°44'5 9.3
2017-Oct-14 17:00N 46°11' W 123°50'1 1.8
2017-Oct-14 16:28N 46°12' W 123°48'0 0.0
2017-Oct-14 15:58N 46°12' W 123°48'0 0.0
2017-Oct-14 15:07N 46°12' W 123°48'0 0.0
2017-Oct-14 14:58N 46°12' W 123°48'0 0.0
2017-Oct-14 14:28N 46°12' W 123°48'0 0.0
2017-Oct-14 13:58N 46°12' W 123°48'0 0.0
2017-Oct-14 13:28N 46°12' W 123°48'0 0.0
2017-Oct-14 12:58N 46°12' W 123°48'0 0.0
2017-Oct-14 12:28N 46°12' W 123°48'0 0.0
2017-Oct-14 11:58N 46°12' W 123°48'0 0.0
2017-Oct-14 11:28N 46°12' W 123°48'0 0.0
2017-Oct-14 10:58N 46°12' W 123°48'0 0.0
2017-Oct-14 10:28N 46°12' W 123°48'0 0.0
2017-Oct-14 09:58N 46°12' W 123°48'0 0.0
2017-Oct-14 09:28N 46°12' W 123°48'0 0.0
2017-Oct-14 08:55N 46°12' W 123°48'0 0.0
2017-Oct-14 08:28N 46°12' W 123°48'0 0.0
2017-Oct-14 07:58N 46°12' W 123°48'0 0.0
2017-Oct-14 07:28N 46°12' W 123°48'0 0.0
2017-Oct-14 06:58N 46°12' W 123°48'0 0.0
2017-Oct-14 06:25N 46°12' W 123°48'0 0.0
2017-Oct-14 05:58N 46°12' W 123°48'0 0.0
2017-Oct-14 05:28N 46°12' W 123°48'0 0.0
2017-Oct-14 04:58N 46°12' W 123°48'0 0.0
2017-Oct-14 04:25N 46°12' W 123°48'0 0.0
2017-Oct-14 03:58N 46°12' W 123°48'0 0.0
2017-Oct-14 03:19N 46°12' W 123°48'0 0.0
2017-Oct-14 03:01N 46°12' W 123°48'1 1.2
2017-Oct-14 02:30N 46°12' W 123°49'5 9.1
2017-Oct-14 02:00N 46°14' W 123°43'4 7.0
2017-Oct-14 01:25N 46°12' W 123°48'0 0.0
2017-Oct-14 00:58N 46°12' W 123°48'0 0.0
2017-Oct-14 00:28N 46°12' W 123°48'0 0.0
2017-Oct-13 23:58N 46°12' W 123°48'0 0.0
2017-Oct-13 23:28N 46°12' W 123°48'0 0.0
2017-Oct-13 22:58N 46°12' W 123°48'0 0.0
2017-Oct-13 22:25N 46°12' W 123°48'0 0.0
2017-Oct-13 21:58N 46°12' W 123°48'1 2.0
2017-Oct-13 21:14N 46°12' W 123°50'1 2.2
2017-Oct-13 21:00N 46°11' W 123°50'4 6.4
2017-Oct-13 20:18N 46°14' W 123°44'1 4.6
2017-Oct-13 20:00N 46°13' W 123°46'3 5.1
2017-Oct-13 19:30N 46°12' W 123°49'4 8.0
2017-Oct-13 19:01N 46°14' W 123°44'4 5.5
2017-Oct-13 18:18N 46°12' W 123°49'1 2.5
2017-Oct-13 18:00N 46°11' W 123°50'0 0.0
2017-Oct-13 17:13N 46°11' W 123°50'1 3.5
2017-Oct-13 17:00N 46°12' W 123°49'1 1.5
2017-Oct-13 16:30N 46°12' W 123°48'4 7.5
2017-Oct-13 16:00N 46°14' W 123°43'3 5.7
2017-Oct-13 15:30N 46°13' W 123°47'2 4.3
2017-Oct-13 15:00N 46°11' W 123°50'1 1.4
2017-Oct-13 14:30N 46°12' W 123°49'0 0.4
2017-Oct-13 13:50N 46°12' W 123°48'0 0.0
2017-Oct-13 13:29N 46°12' W 123°48'0 0.0
2017-Oct-13 12:47N 46°12' W 123°48'0 0.0
2017-Oct-13 12:29N 46°12' W 123°48'0 0.0
2017-Oct-13 11:53N 46°12' W 123°48'0 0.0
2017-Oct-13 11:29N 46°12' W 123°48'0 0.0
2017-Oct-13 10:59N 46°12' W 123°48'0 0.0
2017-Oct-13 10:26N 46°12' W 123°48'0 0.0
2017-Oct-13 09:59N 46°12' W 123°48'0 0.0
2017-Oct-13 09:11N 46°12' W 123°48'0 0.0
2017-Oct-13 08:59N 46°12' W 123°48'0 0.0
2017-Oct-13 07:50N 46°12' W 123°48'0 0.0
2017-Oct-13 07:29N 46°12' W 123°48'0 0.0
2017-Oct-13 06:59N 46°12' W 123°48'0 0.0
2017-Oct-13 06:29N 46°12' W 123°48'0 0.0
2017-Oct-13 05:53N 46°12' W 123°48'0 0.0
2017-Oct-13 05:29N 46°12' W 123°48'0 0.0
2017-Oct-13 04:59N 46°12' W 123°48'0 0.0
2017-Oct-13 04:30N 46°12' W 123°48'0 0.0
2017-Oct-13 03:59N 46°12' W 123°48'0 0.0
2017-Oct-13 03:29N 46°12' W 123°48'0 0.0
2017-Oct-13 02:59N 46°12' W 123°48'0 0.0
2017-Oct-13 02:20N 46°12' W 123°48'0 0.0
2017-Oct-13 01:59N 46°12' W 123°48'0 0.0
2017-Oct-13 01:29N 46°12' W 123°48'0 0.0
2017-Oct-13 01:00N 46°12' W 123°48'0 0.0
2017-Oct-13 00:30N 46°12' W 123°48'0 0.0
2017-Oct-12 23:59N 46°12' W 123°48'0 0.0
2017-Oct-12 23:29N 46°12' W 123°48'0 0.0
2017-Oct-12 23:00N 46°12' W 123°48'0 0.0
2017-Oct-12 22:30N 46°12' W 123°48'0 0.0
2017-Oct-12 21:59N 46°12' W 123°48'0 0.0
2017-Oct-12 21:30N 46°12' W 123°48'0 0.0
2017-Oct-12 21:00N 46°12' W 123°48'0 0.0
2017-Oct-12 20:30N 46°12' W 123°48'0 0.0
2017-Oct-12 20:00N 46°12' W 123°48'0 0.0
2017-Oct-12 19:30N 46°12' W 123°48'0 0.0
2017-Oct-12 19:00N 46°12' W 123°48'0 0.0
2017-Oct-12 18:30N 46°12' W 123°48'0 0.0
2017-Oct-12 18:00N 46°12' W 123°48'0 0.0
2017-Oct-12 17:30N 46°12' W 123°48'0 0.0
2017-Oct-12 16:54N 46°12' W 123°48'0 0.0
2017-Oct-12 16:30N 46°12' W 123°48'0 0.0
2017-Oct-12 16:00N 46°12' W 123°48'0 0.0
2017-Oct-12 15:30N 46°12' W 123°48'0 0.0
2017-Oct-12 15:00N 46°12' W 123°48'0 0.0
2017-Oct-12 14:30N 46°12' W 123°48'0 0.0
2017-Oct-12 13:51N 46°12' W 123°48'0 0.0
2017-Oct-12 13:30N 46°12' W 123°48'0 0.0
2017-Oct-12 12:54N 46°12' W 123°48'0 0.0
2017-Oct-12 12:30N 46°12' W 123°48'0 0.0
2017-Oct-12 11:51N 46°12' W 123°48'0 0.0
2017-Oct-12 11:30N 46°12' W 123°48'0 0.0
2017-Oct-12 10:57N 46°12' W 123°48'0 0.0
2017-Oct-12 10:30N 46°12' W 123°48'0 0.0
2017-Oct-12 09:51N 46°12' W 123°48'0 0.0
2017-Oct-12 09:30N 46°12' W 123°48'0 0.0
2017-Oct-12 08:54N 46°12' W 123°48'0 0.0
2017-Oct-12 08:30N 46°12' W 123°48'0 0.0
2017-Oct-12 07:42N 46°12' W 123°48'0 0.0
2017-Oct-12 07:30N 46°12' W 123°48'0 0.0
2017-Oct-12 07:00N 46°12' W 123°48'0 0.0
2017-Oct-12 06:30N 46°12' W 123°48'0 0.0
2017-Oct-12 06:00N 46°12' W 123°48'0 0.0
2017-Oct-12 05:24N 46°12' W 123°48'0 0.0
2017-Oct-12 05:00N 46°12' W 123°48'0 0.0
2017-Oct-12 04:30N 46°12' W 123°48'0 0.0
2017-Oct-12 04:00N 46°12' W 123°48'0 0.0
2017-Oct-12 03:30N 46°12' W 123°48'0 0.0
2017-Oct-12 03:00N 46°12' W 123°48'0 0.0
2017-Oct-12 02:30N 46°12' W 123°48'0 0.0
2017-Oct-12 02:00N 46°12' W 123°48'0 0.0
2017-Oct-12 01:30N 46°12' W 123°48'0 0.0
2017-Oct-12 01:00N 46°12' W 123°48'0 0.0
2017-Oct-12 00:06N 46°12' W 123°48'0 1.5
2017-Oct-11 23:50N 46°12' W 123°49'3 9.8
2017-Oct-11 23:30N 46°13' W 123°45'1 2.6
2017-Oct-11 23:00N 46°14' W 123°43'0 0.1
2017-Oct-11 22:18N 46°14' W 123°43'0 0.1
2017-Oct-11 21:57N 46°14' W 123°43'0 0.2
2017-Oct-11 21:30N 46°14' W 123°43'510.0
2017-Oct-11 21:00N 46°11' W 123°50'1 1.9
2017-Oct-11 20:30N 46°12' W 123°48'0 0.1
2017-Oct-11 19:59N 46°12' W 123°48'0 0.0
2017-Oct-11 19:29N 46°12' W 123°48'0 0.0
2017-Oct-11 18:59N 46°12' W 123°48'0 0.0
2017-Oct-11 18:29N 46°12' W 123°48'0 0.0
2017-Oct-11 17:59N 46°12' W 123°48'0 0.0
2017-Oct-11 17:29N 46°12' W 123°48'0 0.0
2017-Oct-11 16:56N 46°12' W 123°48'0 0.0
2017-Oct-10 23:58N 46°12' W 123°48'0 0.0
2017-Oct-10 23:28N 46°12' W 123°48'0 0.0
2017-Oct-10 22:58N 46°12' W 123°48'0 0.0
2017-Oct-10 22:28N 46°12' W 123°48'0 0.0
2017-Oct-10 21:55N 46°12' W 123°48'0 0.0
2017-Oct-10 21:28N 46°12' W 123°48'0 0.0
2017-Oct-10 20:58N 46°12' W 123°48'1 2.4
2017-Oct-10 20:30N 46°12' W 123°47'3 5.6
2017-Oct-10 20:00N 46°14' W 123°44'4 7.5
2017-Oct-10 19:29N 46°12' W 123°48'0 0.0
2017-Oct-10 19:00N 46°12' W 123°48'0 0.2
2017-Oct-10 18:30N 46°12' W 123°48'0 0.0
2017-Oct-10 18:00N 46°12' W 123°48'0 0.0
2017-Oct-10 17:30N 46°12' W 123°48'0 0.0
2017-Oct-10 17:00N 46°12' W 123°48'0 0.0
2017-Oct-10 16:30N 46°12' W 123°48'0 0.0
2017-Oct-10 16:00N 46°12' W 123°48'0 0.0
2017-Oct-10 15:24N 46°12' W 123°48'0 0.0
2017-Oct-10 15:00N 46°12' W 123°48'0 0.0
2017-Oct-10 14:00N 46°12' W 123°48'0 0.0
2017-Oct-10 13:30N 46°12' W 123°48'0 0.0
2017-Oct-10 13:00N 46°12' W 123°48'0 0.0
2017-Oct-10 12:15N 46°12' W 123°48'0 0.0
2017-Oct-10 11:57N 46°12' W 123°48'0 0.0
2017-Oct-10 11:30N 46°12' W 123°48'0 0.0
2017-Oct-10 11:00N 46°12' W 123°48'0 0.0
2017-Oct-10 10:30N 46°12' W 123°48'0 0.0
2017-Oct-10 10:00N 46°12' W 123°48'0 0.0
2017-Oct-10 09:18N 46°12' W 123°48'0 0.0
2017-Oct-10 08:51N 46°12' W 123°48'0 0.0
2017-Oct-10 08:30N 46°12' W 123°48'0 0.0
2017-Oct-10 07:57N 46°12' W 123°48'0 0.0
2017-Oct-10 07:30N 46°12' W 123°48'0 0.0
2017-Oct-10 07:00N 46°12' W 123°48'0 0.0
2017-Oct-10 06:30N 46°12' W 123°48'0 0.0
2017-Oct-10 05:54N 46°12' W 123°48'0 0.0
2017-Oct-10 05:30N 46°12' W 123°48'0 0.0
2017-Oct-10 05:00N 46°12' W 123°48'0 0.0
2017-Oct-10 04:30N 46°12' W 123°48'0 0.0
2017-Oct-10 03:51N 46°12' W 123°48'0 0.0
2017-Oct-10 03:30N 46°12' W 123°48'  
Track history (hours):
 
Tides and Currents Weather Stations Pressure Air Temp Water Temp Dewpoint Dewpoint Depression Visibility Wind Speed Wind Dir Waves Ship Positions

Triumph II

Owner: ANCHORAGE LAUNCH SERVICE CO, PORTLAND, OR. More information available from US FCC via Universal Licensing System.

Last reported at 2017-Oct-20 02:59 UTC. Time now 2017-Oct-20 03:06 UTC.
Position N 46°12' W 123°48'.

Length 19 m.

Type: Passenger vessel. MMSI: 366970430.

Date/timePositionNaut miles runAvg speedWind from/ knotsBaromVisibWave heightAir tempDewpointWater temp
2017-Oct-20 02:59N 46°12' W 123°48'0 0.0
2017-Oct-20 02:29N 46°12' W 123°48'0 0.0
2017-Oct-20 01:59N 46°12' W 123°48'0 0.0
2017-Oct-20 01:29N 46°12' W 123°48'0 0.0
2017-Oct-20 00:56N 46°12' W 123°48'0 0.0
2017-Oct-20 00:29N 46°12' W 123°48'0 0.0
2017-Oct-19 23:59N 46°12' W 123°48'0 0.0
2017-Oct-19 23:29N 46°12' W 123°48'0 0.0
2017-Oct-19 22:59N 46°12' W 123°48'0 0.0
2017-Oct-19 22:29N 46°12' W 123°48'0 0.0
2017-Oct-19 21:56N 46°12' W 123°48'0 0.0
2017-Oct-19 21:29N 46°12' W 123°48'0 0.0
2017-Oct-19 20:59N 46°12' W 123°48'0 0.0
2017-Oct-19 20:29N 46°12' W 123°48'0 0.0
2017-Oct-19 19:59N 46°12' W 123°48'3 6.3
2017-Oct-19 19:30N 46°14' W 123°45'1 2.1
2017-Oct-19 19:00N 46°14' W 123°43'0 0.1
2017-Oct-19 18:28N 46°14' W 123°44'0 0.1
2017-Oct-19 17:59N 46°14' W 123°43'4 9.0
2017-Oct-19 17:30N 46°12' W 123°49'0 0.1
2017-Oct-19 17:00N 46°12' W 123°49'1 1.6
2017-Oct-19 16:28N 46°11' W 123°50'1 2.1
2017-Oct-19 16:00N 46°12' W 123°48'0 0.0
2017-Oct-19 15:30N 46°12' W 123°48'0 0.0
2017-Oct-19 15:00N 46°12' W 123°48'0 0.0
2017-Oct-19 14:27N 46°12' W 123°48'0 0.0
2017-Oct-19 13:51N 46°12' W 123°48'0 0.0
2017-Oct-19 13:30N 46°12' W 123°48'0 0.0
2017-Oct-19 13:00N 46°12' W 123°48'0 0.0
2017-Oct-19 12:27N 46°12' W 123°48'0 0.0
2017-Oct-19 12:00N 46°12' W 123°48'0 0.0
2017-Oct-19 11:30N 46°12' W 123°48'0 0.0
2017-Oct-19 10:57N 46°12' W 123°48'0 0.0
2017-Oct-19 10:30N 46°12' W 123°48'0 0.0
2017-Oct-19 09:57N 46°12' W 123°48'0 0.0
2017-Oct-19 09:30N 46°12' W 123°48'0 0.0
2017-Oct-19 09:00N 46°12' W 123°48'0 0.0
2017-Oct-19 08:30N 46°12' W 123°48'0 0.0
2017-Oct-19 08:00N 46°12' W 123°48'0 0.0
2017-Oct-19 07:30N 46°12' W 123°48'0 0.0
2017-Oct-19 07:00N 46°12' W 123°48'0 0.0
2017-Oct-19 06:30N 46°12' W 123°48'0 0.0
2017-Oct-19 06:00N 46°12' W 123°48'0 0.0
2017-Oct-19 05:30N 46°12' W 123°48'0 0.0
2017-Oct-19 04:48N 46°12' W 123°48'0 0.0
2017-Oct-19 04:30N 46°12' W 123°48'0 0.0
2017-Oct-19 04:00N 46°12' W 123°48'0 0.0
2017-Oct-19 03:27N 46°12' W 123°48'0 0.0
2017-Oct-19 03:00N 46°12' W 123°48'0 0.0
2017-Oct-19 02:30N 46°12' W 123°48'0 0.0
2017-Oct-19 01:57N 46°12' W 123°48'0 0.0
2017-Oct-19 01:30N 46°12' W 123°48'0 0.0
2017-Oct-19 01:00N 46°12' W 123°48'0 0.0
2017-Oct-19 00:30N 46°12' W 123°48'0 0.0
2017-Oct-19 00:00N 46°12' W 123°48'0 0.0
2017-Oct-18 23:30N 46°12' W 123°48'0 0.0
2017-Oct-18 23:00N 46°12' W 123°48'0 0.0
2017-Oct-18 22:30N 46°12' W 123°48'0 0.0
2017-Oct-18 21:57N 46°12' W 123°48'0 0.0
2017-Oct-18 21:24N 46°12' W 123°48'0 0.0
2017-Oct-18 21:00N 46°12' W 123°48'0 0.0
2017-Oct-18 20:29N 46°12' W 123°48'0 0.0
2017-Oct-18 19:59N 46°12' W 123°48'0 0.0
2017-Oct-18 19:29N 46°12' W 123°48'0 0.0
2017-Oct-18 18:59N 46°12' W 123°48'0 0.0
2017-Oct-18 18:29N 46°12' W 123°48'0 0.0
2017-Oct-18 17:59N 46°12' W 123°48'0 0.0
2017-Oct-18 17:29N 46°12' W 123°48'0 0.0
2017-Oct-18 16:59N 46°12' W 123°48'0 0.0
2017-Oct-18 16:29N 46°12' W 123°48'0 0.0
2017-Oct-18 15:50N 46°12' W 123°48'0 0.0
2017-Oct-18 15:23N 46°12' W 123°48'0 0.0
2017-Oct-18 14:59N 46°12' W 123°48'0 0.0
2017-Oct-18 13:59N 46°12' W 123°48'0 0.0
2017-Oct-18 13:29N 46°12' W 123°48'0 0.0
2017-Oct-18 12:41N 46°12' W 123°48'0 0.0
2017-Oct-18 12:26N 46°12' W 123°48'0 0.0
2017-Oct-18 11:59N 46°12' W 123°48'0 0.0
2017-Oct-18 11:29N 46°12' W 123°48'0 0.0
2017-Oct-18 10:59N 46°12' W 123°48'0 0.0
2017-Oct-18 10:29N 46°12' W 123°48'0 0.0
2017-Oct-18 09:59N 46°12' W 123°48'0 0.0
2017-Oct-18 09:29N 46°12' W 123°48'0 0.0
2017-Oct-18 08:47N 46°12' W 123°48'0 0.0
2017-Oct-18 08:17N 46°12' W 123°48'0 0.0
2017-Oct-18 07:59N 46°12' W 123°48'0 0.0
2017-Oct-18 07:29N 46°12' W 123°48'0 0.0
2017-Oct-18 06:59N 46°12' W 123°48'0 0.0
2017-Oct-18 06:29N 46°12' W 123°48'0 0.0
2017-Oct-18 05:50N 46°12' W 123°48'0 0.0
2017-Oct-18 05:29N 46°12' W 123°48'0 0.0
2017-Oct-18 04:59N 46°12' W 123°48'0 0.0
2017-Oct-18 04:29N 46°12' W 123°48'0 0.0
2017-Oct-18 03:59N 46°12' W 123°48'0 0.0
2017-Oct-18 03:29N 46°12' W 123°48'0 0.0
2017-Oct-18 02:59N 46°12' W 123°48'0 0.0
2017-Oct-18 02:29N 46°12' W 123°48'0 0.0
2017-Oct-18 01:56N 46°12' W 123°48'0 0.0
2017-Oct-18 01:29N 46°12' W 123°48'0 0.0
2017-Oct-18 00:59N 46°12' W 123°48'0 0.0
2017-Oct-18 00:29N 46°12' W 123°48'1 2.3
2017-Oct-18 00:00N 46°13' W 123°47'0 0.1
2017-Oct-17 23:30N 46°13' W 123°47'0 0.8
2017-Oct-17 23:00N 46°13' W 123°47'3 5.4
2017-Oct-17 22:30N 46°12' W 123°50'3 5.3
2017-Oct-17 22:00N 46°13' W 123°47'0 0.1
2017-Oct-17 21:30N 46°13' W 123°47'2 4.8
2017-Oct-17 21:00N 46°11' W 123°50'0 0.0
2017-Oct-17 20:30N 46°11' W 123°50'2 3.2
2017-Oct-17 20:00N 46°11' W 123°52'3 4.6
2017-Oct-17 19:27N 46°12' W 123°48'0 0.0
2017-Oct-17 19:00N 46°12' W 123°48'0 0.0
2017-Oct-17 18:30N 46°12' W 123°48'0 0.0
2017-Oct-17 18:00N 46°12' W 123°48'1 1.6
2017-Oct-17 17:30N 46°12' W 123°47'3 6.2
2017-Oct-17 17:00N 46°14' W 123°44'0 0.3
2017-Oct-17 16:14N 46°14' W 123°44'418.5
2017-Oct-17 16:00N 46°12' W 123°49'1 1.9
2017-Oct-17 15:30N 46°12' W 123°48'1 2.7
2017-Oct-17 14:58N 46°11' W 123°50'1 2.1
2017-Oct-17 14:30N 46°12' W 123°48'0 0.0
2017-Oct-17 14:00N 46°12' W 123°48'0 0.0
2017-Oct-17 13:30N 46°12' W 123°48'0 0.0
2017-Oct-17 13:00N 46°12' W 123°48'0 0.0
2017-Oct-17 12:30N 46°12' W 123°48'0 0.0
2017-Oct-17 12:00N 46°12' W 123°48'0 0.0
2017-Oct-17 11:30N 46°12' W 123°48'0 0.0
2017-Oct-17 11:00N 46°12' W 123°48'0 0.0
2017-Oct-17 10:27N 46°12' W 123°48'0 0.0
2017-Oct-17 10:00N 46°12' W 123°48'0 0.0
2017-Oct-17 09:30N 46°12' W 123°48'0 0.0
2017-Oct-17 09:00N 46°12' W 123°48'0 0.0
2017-Oct-17 08:30N 46°12' W 123°48'0 0.0
2017-Oct-17 08:00N 46°12' W 123°48'0 0.0
2017-Oct-17 07:30N 46°12' W 123°48'0 0.0
2017-Oct-17 07:00N 46°12' W 123°48'0 0.0
2017-Oct-17 06:30N 46°12' W 123°48'0 0.0
2017-Oct-17 06:00N 46°12' W 123°48'0 0.0
2017-Oct-17 05:30N 46°12' W 123°48'0 0.0
2017-Oct-17 05:00N 46°12' W 123°48'0 0.0
2017-Oct-17 04:30N 46°12' W 123°48'0 0.0
2017-Oct-17 04:00N 46°12' W 123°48'0 0.0
2017-Oct-17 03:30N 46°12' W 123°48'0 0.0
2017-Oct-17 03:00N 46°12' W 123°48'0 0.0
2017-Oct-17 02:30N 46°12' W 123°48'0 0.0
2017-Oct-17 02:00N 46°12' W 123°48'0 0.0
2017-Oct-17 01:30N 46°12' W 123°48'0 0.0
2017-Oct-17 01:00N 46°12' W 123°48'0 0.0
2017-Oct-17 00:30N 46°12' W 123°48'0 0.0
2017-Oct-17 00:00N 46°12' W 123°48'0 0.0
2017-Oct-16 23:30N 46°12' W 123°48'0 0.0
2017-Oct-16 23:00N 46°12' W 123°48'0 0.0
2017-Oct-16 22:30N 46°12' W 123°48'0 0.0
2017-Oct-16 22:00N 46°12' W 123°48'0 0.0
2017-Oct-16 21:30N 46°12' W 123°48'0 0.0
2017-Oct-16 21:00N 46°12' W 123°48'0 0.0
2017-Oct-16 20:30N 46°12' W 123°48'0 0.0
2017-Oct-16 19:57N 46°12' W 123°48'0 0.0
2017-Oct-16 19:30N 46°12' W 123°48'3 5.9
2017-Oct-16 19:00N 46°14' W 123°45'4 7.7
2017-Oct-16 18:30N 46°11' W 123°50'0 0.0
2017-Oct-16 18:00N 46°11' W 123°50'2 3.5
2017-Oct-16 17:30N 46°13' W 123°48'0 0.1
2017-Oct-16 16:59N 46°13' W 123°48'0 0.0
2017-Oct-16 16:29N 46°13' W 123°48'2 3.4
2017-Oct-16 15:59N 46°11' W 123°50'0 0.8
2017-Oct-16 15:30N 46°12' W 123°49'1 1.1
2017-Oct-16 14:55N 46°12' W 123°48'0 0.0
2017-Oct-16 14:28N 46°12' W 123°48'0 0.0
2017-Oct-16 13:28N 46°12' W 123°48'0 0.0
2017-Oct-16 12:58N 46°12' W 123°48'0 0.0
2017-Oct-16 12:28N 46°12' W 123°48'0 0.0
2017-Oct-16 11:58N 46°12' W 123°48'0 0.0
2017-Oct-16 11:28N 46°12' W 123°48'0 0.0
2017-Oct-16 10:58N 46°12' W 123°48'0 0.0
2017-Oct-16 10:28N 46°12' W 123°48'0 0.0
2017-Oct-16 09:58N 46°12' W 123°48'0 0.0
2017-Oct-16 09:28N 46°12' W 123°48'0 0.0
2017-Oct-16 08:58N 46°12' W 123°48'0 0.0
2017-Oct-16 08:28N 46°12' W 123°48'0 0.0
2017-Oct-16 07:58N 46°12' W 123°48'0 0.0
2017-Oct-16 07:01N 46°12' W 123°48'0 0.0
2017-Oct-16 06:58N 46°12' W 123°48'0 0.0
2017-Oct-16 06:28N 46°12' W 123°48'0 0.0
2017-Oct-16 05:58N 46°12' W 123°48'0 0.0
2017-Oct-16 05:28N 46°12' W 123°48'0 0.0
2017-Oct-16 04:58N 46°12' W 123°48'0 0.0
2017-Oct-16 04:28N 46°12' W 123°48'0 0.0
2017-Oct-16 03:58N 46°12' W 123°48'0 0.0
2017-Oct-16 03:28N 46°12' W 123°48'0 0.0
2017-Oct-16 02:58N 46°12' W 123°48'0 0.0
2017-Oct-16 02:28N 46°12' W 123°48'0 0.0
2017-Oct-16 01:58N 46°12' W 123°48'0 0.0
2017-Oct-16 01:28N 46°12' W 123°48'0 0.0
2017-Oct-16 00:58N 46°12' W 123°48'0 0.0
2017-Oct-16 00:22N 46°12' W 123°48'0 0.0
2017-Oct-15 23:58N 46°12' W 123°48'0 0.1
2017-Oct-15 23:30N 46°12' W 123°48'1 1.2
2017-Oct-15 23:00N 46°12' W 123°48'0 0.5
2017-Oct-15 22:29N 46°13' W 123°48'0 0.0
2017-Oct-15 21:59N 46°13' W 123°48'0 0.0
2017-Oct-15 21:30N 46°13' W 123°48'0 0.0
2017-Oct-15 20:59N 46°13' W 123°48'0 0.7
2017-Oct-15 20:29N 46°12' W 123°48'1 2.4
2017-Oct-15 20:00N 46°11' W 123°50'1 1.7
2017-Oct-15 19:24N 46°12' W 123°48'0 0.0
2017-Oct-15 18:57N 46°12' W 123°48'0 0.0
2017-Oct-15 18:30N 46°12' W 123°48'0 0.0
2017-Oct-15 18:00N 46°12' W 123°48'0 0.0
2017-Oct-15 17:30N 46°12' W 123°48'0 0.0
2017-Oct-15 17:00N 46°12' W 123°48'0 0.0
2017-Oct-15 16:30N 46°12' W 123°48'0 0.0
2017-Oct-15 16:00N 46°12' W 123°48'0 0.0
2017-Oct-15 15:30N 46°12' W 123°48'0 0.0
2017-Oct-15 15:00N 46°12' W 123°48'0 0.0
2017-Oct-15 13:51N 46°12' W 123°48'0 0.0
2017-Oct-15 13:30N 46°12' W 123°48'0 0.0
2017-Oct-15 12:57N 46°12' W 123°48'0 0.0
2017-Oct-15 12:30N 46°12' W 123°48'0 0.0
2017-Oct-15 12:00N 46°12' W 123°48'0 0.0
2017-Oct-15 11:30N 46°12' W 123°48'0 0.0
2017-Oct-15 11:00N 46°12' W 123°48'0 0.0
2017-Oct-15 10:30N 46°12' W 123°48'0 0.0
2017-Oct-15 10:00N 46°12' W 123°48'0 0.0
2017-Oct-15 09:30N 46°12' W 123°48'0 0.0
2017-Oct-15 08:57N 46°12' W 123°48'0 0.0
2017-Oct-15 08:30N 46°12' W 123°48'0 0.0
2017-Oct-15 08:00N 46°12' W 123°48'0 0.0
2017-Oct-15 07:30N 46°12' W 123°48'0 0.0
2017-Oct-15 07:00N 46°12' W 123°48'0 0.0
2017-Oct-15 06:30N 46°12' W 123°48'0 0.0
2017-Oct-15 06:00N 46°12' W 123°48'0 0.0
2017-Oct-15 05:30N 46°12' W 123°48'0 0.0
2017-Oct-15 05:00N 46°12' W 123°48'0 0.0
2017-Oct-15 04:30N 46°12' W 123°48'0 0.0
2017-Oct-15 04:00N 46°12' W 123°48'0 0.0
2017-Oct-15 03:30N 46°12' W 123°48'0 0.0
2017-Oct-15 03:00N 46°12' W 123°48'0 0.0
2017-Oct-15 02:30N 46°12' W 123°48'1 1.2
2017-Oct-15 01:41N 46°11' W 123°50'1 1.6
2017-Oct-15 01:20N 46°12' W 123°50'0 0.6
2017-Oct-15 01:00N 46°12' W 123°50'0 0.5
2017-Oct-15 00:30N 46°12' W 123°50'0 0.2
2017-Oct-14 23:58N 46°12' W 123°50'0 0.0
2017-Oct-14 23:28N 46°12' W 123°50'1 0.9
2017-Oct-14 22:52N 46°11' W 123°50'1 2.5
2017-Oct-14 22:28N 46°12' W 123°48'0 0.0
2017-Oct-14 21:58N 46°12' W 123°48'0 0.0
2017-Oct-14 21:28N 46°12' W 123°48'0 0.0
2017-Oct-14 20:58N 46°12' W 123°48'0 0.0
2017-Oct-14 20:30N 46°12' W 123°48'3 5.4
2017-Oct-14 20:00N 46°13' W 123°45'2 4.9
2017-Oct-14 19:30N 46°12' W 123°48'4 7.2
2017-Oct-14 19:00N 46°14' W 123°44'0 0.1
2017-Oct-14 18:30N 46°14' W 123°44'0 0.1
2017-Oct-14 18:00N 46°14' W 123°44'0 0.2
2017-Oct-14 17:30N 46°14' W 123°44'5 9.3
2017-Oct-14 17:00N 46°11' W 123°50'1 1.8
2017-Oct-14 16:28N 46°12' W 123°48'0 0.0
2017-Oct-14 15:58N 46°12' W 123°48'0 0.0
2017-Oct-14 15:07N 46°12' W 123°48'0 0.0
2017-Oct-14 14:58N 46°12' W 123°48'0 0.0
2017-Oct-14 14:28N 46°12' W 123°48'0 0.0
2017-Oct-14 13:58N 46°12' W 123°48'0 0.0
2017-Oct-14 13:28N 46°12' W 123°48'0 0.0
2017-Oct-14 12:58N 46°12' W 123°48'0 0.0
2017-Oct-14 12:28N 46°12' W 123°48'0 0.0
2017-Oct-14 11:58N 46°12' W 123°48'0 0.0
2017-Oct-14 11:28N 46°12' W 123°48'0 0.0
2017-Oct-14 10:58N 46°12' W 123°48'0 0.0
2017-Oct-14 10:28N 46°12' W 123°48'0 0.0
2017-Oct-14 09:58N 46°12' W 123°48'0 0.0
2017-Oct-14 09:28N 46°12' W 123°48'0 0.0
2017-Oct-14 08:55N 46°12' W 123°48'0 0.0
2017-Oct-14 08:28N 46°12' W 123°48'0 0.0
2017-Oct-14 07:58N 46°12' W 123°48'0 0.0
2017-Oct-14 07:28N 46°12' W 123°48'0 0.0
2017-Oct-14 06:58N 46°12' W 123°48'0 0.0
2017-Oct-14 06:25N 46°12' W 123°48'0 0.0
2017-Oct-14 05:58N 46°12' W 123°48'0 0.0
2017-Oct-14 05:28N 46°12' W 123°48'0 0.0
2017-Oct-14 04:58N 46°12' W 123°48'0 0.0
2017-Oct-14 04:25N 46°12' W 123°48'0 0.0
2017-Oct-14 03:58N 46°12' W 123°48'0 0.0
2017-Oct-14 03:19N 46°12' W 123°48'0 0.0
2017-Oct-14 03:01N 46°12' W 123°48'1 1.2
2017-Oct-14 02:30N 46°12' W 123°49'5 9.1
2017-Oct-14 02:00N 46°14' W 123°43'4 7.0
2017-Oct-14 01:25N 46°12' W 123°48'0 0.0
2017-Oct-14 00:58N 46°12' W 123°48'0 0.0
2017-Oct-14 00:28N 46°12' W 123°48'0 0.0
2017-Oct-13 23:58N 46°12' W 123°48'0 0.0
2017-Oct-13 23:28N 46°12' W 123°48'0 0.0
2017-Oct-13 22:58N 46°12' W 123°48'0 0.0
2017-Oct-13 22:25N 46°12' W 123°48'0 0.0
2017-Oct-13 21:58N 46°12' W 123°48'1 2.0
2017-Oct-13 21:14N 46°12' W 123°50'1 2.2
2017-Oct-13 21:00N 46°11' W 123°50'4 6.4
2017-Oct-13 20:18N 46°14' W 123°44'1 4.6
2017-Oct-13 20:00N 46°13' W 123°46'3 5.1
2017-Oct-13 19:30N 46°12' W 123°49'4 8.0
2017-Oct-13 19:01N 46°14' W 123°44'4 5.5
2017-Oct-13 18:18N 46°12' W 123°49'1 2.5
2017-Oct-13 18:00N 46°11' W 123°50'0 0.0
2017-Oct-13 17:13N 46°11' W 123°50'1 3.5
2017-Oct-13 17:00N 46°12' W 123°49'1 1.5
2017-Oct-13 16:30N 46°12' W 123°48'4 7.5
2017-Oct-13 16:00N 46°14' W 123°43'3 5.7
2017-Oct-13 15:30N 46°13' W 123°47'2 4.3
2017-Oct-13 15:00N 46°11' W 123°50'1 1.4
2017-Oct-13 14:30N 46°12' W 123°49'0 0.4
2017-Oct-13 13:50N 46°12' W 123°48'0 0.0
2017-Oct-13 13:29N 46°12' W 123°48'0 0.0
2017-Oct-13 12:47N 46°12' W 123°48'0 0.0
2017-Oct-13 12:29N 46°12' W 123°48'0 0.0
2017-Oct-13 11:53N 46°12' W 123°48'0 0.0
2017-Oct-13 11:29N 46°12' W 123°48'0 0.0
2017-Oct-13 10:59N 46°12' W 123°48'0 0.0
2017-Oct-13 10:26N 46°12' W 123°48'0 0.0
2017-Oct-13 09:59N 46°12' W 123°48'0 0.0
2017-Oct-13 09:11N 46°12' W 123°48'0 0.0
2017-Oct-13 08:59N 46°12' W 123°48'0 0.0
2017-Oct-13 07:50N 46°12' W 123°48'0 0.0
2017-Oct-13 07:29N 46°12' W 123°48'0 0.0
2017-Oct-13 06:59N 46°12' W 123°48'0 0.0
2017-Oct-13 06:29N 46°12' W 123°48'0 0.0
2017-Oct-13 05:53N 46°12' W 123°48'0 0.0
2017-Oct-13 05:29N 46°12' W 123°48'0 0.0
2017-Oct-13 04:59N 46°12' W 123°48'0 0.0
2017-Oct-13 04:30N 46°12' W 123°48'0 0.0
2017-Oct-13 03:59N 46°12' W 123°48'0 0.0
2017-Oct-13 03:29N 46°12' W 123°48'0 0.0
2017-Oct-13 02:59N 46°12' W 123°48'0 0.0
2017-Oct-13 02:20N 46°12' W 123°48'0 0.0
2017-Oct-13 01:59N 46°12' W 123°48'0 0.0
2017-Oct-13 01:29N 46°12' W 123°48'0 0.0
2017-Oct-13 01:00N 46°12' W 123°48'0 0.0
2017-Oct-13 00:30N 46°12' W 123°48'0 0.0
2017-Oct-12 23:59N 46°12' W 123°48'0 0.0
2017-Oct-12 23:29N 46°12' W 123°48'0 0.0
2017-Oct-12 23:00N 46°12' W 123°48'0 0.0
2017-Oct-12 22:30N 46°12' W 123°48'0 0.0
2017-Oct-12 21:59N 46°12' W 123°48'0 0.0
2017-Oct-12 21:30N 46°12' W 123°48'0 0.0
2017-Oct-12 21:00N 46°12' W 123°48'0 0.0
2017-Oct-12 20:30N 46°12' W 123°48'0 0.0
2017-Oct-12 20:00N 46°12' W 123°48'0 0.0
2017-Oct-12 19:30N 46°12' W 123°48'0 0.0
2017-Oct-12 19:00N 46°12' W 123°48'0 0.0
2017-Oct-12 18:30N 46°12' W 123°48'0 0.0
2017-Oct-12 18:00N 46°12' W 123°48'0 0.0
2017-Oct-12 17:30N 46°12' W 123°48'0 0.0
2017-Oct-12 16:54N 46°12' W 123°48'0 0.0
2017-Oct-12 16:30N 46°12' W 123°48'0 0.0
2017-Oct-12 16:00N 46°12' W 123°48'0 0.0
2017-Oct-12 15:30N 46°12' W 123°48'0 0.0
2017-Oct-12 15:00N 46°12' W 123°48'0 0.0
2017-Oct-12 14:30N 46°12' W 123°48'0 0.0
2017-Oct-12 13:51N 46°12' W 123°48'0 0.0
2017-Oct-12 13:30N 46°12' W 123°48'0 0.0
2017-Oct-12 12:54N 46°12' W 123°48'0 0.0
2017-Oct-12 12:30N 46°12' W 123°48'0 0.0
2017-Oct-12 11:51N 46°12' W 123°48'0 0.0
2017-Oct-12 11:30N 46°12' W 123°48'0 0.0
2017-Oct-12 10:57N 46°12' W 123°48'0 0.0
2017-Oct-12 10:30N 46°12' W 123°48'0 0.0
2017-Oct-12 09:51N 46°12' W 123°48'0 0.0
2017-Oct-12 09:30N 46°12' W 123°48'0 0.0
2017-Oct-12 08:54N 46°12' W 123°48'0 0.0
2017-Oct-12 08:30N 46°12' W 123°48'0 0.0
2017-Oct-12 07:42N 46°12' W 123°48'0 0.0
2017-Oct-12 07:30N 46°12' W 123°48'0 0.0
2017-Oct-12 07:00N 46°12' W 123°48'0 0.0
2017-Oct-12 06:30N 46°12' W 123°48'0 0.0
2017-Oct-12 06:00N 46°12' W 123°48'0 0.0
2017-Oct-12 05:24N 46°12' W 123°48'0 0.0
2017-Oct-12 05:00N 46°12' W 123°48'0 0.0
2017-Oct-12 04:30N 46°12' W 123°48'0 0.0
2017-Oct-12 04:00N 46°12' W 123°48'0 0.0
2017-Oct-12 03:30N 46°12' W 123°48'0 0.0
2017-Oct-12 03:00N 46°12' W 123°48'0 0.0
2017-Oct-12 02:30N 46°12' W 123°48'0 0.0
2017-Oct-12 02:00N 46°12' W 123°48'0 0.0
2017-Oct-12 01:30N 46°12' W 123°48'0 0.0
2017-Oct-12 01:00N 46°12' W 123°48'0 0.0
2017-Oct-12 00:06N 46°12' W 123°48'0 1.5
2017-Oct-11 23:50N 46°12' W 123°49'3 9.8
2017-Oct-11 23:30N 46°13' W 123°45'1 2.6
2017-Oct-11 23:00N 46°14' W 123°43'0 0.1
2017-Oct-11 22:18N 46°14' W 123°43'0 0.1
2017-Oct-11 21:57N 46°14' W 123°43'0 0.2
2017-Oct-11 21:30N 46°14' W 123°43'510.0
2017-Oct-11 21:00N 46°11' W 123°50'1 1.9
2017-Oct-11 20:30N 46°12' W 123°48'0 0.1
2017-Oct-11 19:59N 46°12' W 123°48'0 0.0
2017-Oct-11 19:29N 46°12' W 123°48'0 0.0
2017-Oct-11 18:59N 46°12' W 123°48'0 0.0
2017-Oct-11 18:29N 46°12' W 123°48'0 0.0
2017-Oct-11 17:59N 46°12' W 123°48'0 0.0
2017-Oct-11 17:29N 46°12' W 123°48'0 0.0
2017-Oct-11 16:56N 46°12' W 123°48'0 0.0
2017-Oct-10 23:58N 46°12' W 123°48'0 0.0
2017-Oct-10 23:28N 46°12' W 123°48'0 0.0
2017-Oct-10 22:58N 46°12' W 123°48'0 0.0
2017-Oct-10 22:28N 46°12' W 123°48'0 0.0
2017-Oct-10 21:55N 46°12' W 123°48'0 0.0
2017-Oct-10 21:28N 46°12' W 123°48'0 0.0
2017-Oct-10 20:58N 46°12' W 123°48'1 2.4
2017-Oct-10 20:30N 46°12' W 123°47'3 5.6
2017-Oct-10 20:00N 46°14' W 123°44'4 7.5
2017-Oct-10 19:29N 46°12' W 123°48'0 0.0
2017-Oct-10 19:00N 46°12' W 123°48'0 0.2
2017-Oct-10 18:30N 46°12' W 123°48'0 0.0
2017-Oct-10 18:00N 46°12' W 123°48'0 0.0
2017-Oct-10 17:30N 46°12' W 123°48'0 0.0
2017-Oct-10 17:00N 46°12' W 123°48'0 0.0
2017-Oct-10 16:30N 46°12' W 123°48'0 0.0
2017-Oct-10 16:00N 46°12' W 123°48'0 0.0
2017-Oct-10 15:24N 46°12' W 123°48'0 0.0
2017-Oct-10 15:00N 46°12' W 123°48'0 0.0
2017-Oct-10 14:00N 46°12' W 123°48'0 0.0
2017-Oct-10 13:30N 46°12' W 123°48'0 0.0
2017-Oct-10 13:00N 46°12' W 123°48'0 0.0
2017-Oct-10 12:15N 46°12' W 123°48'0 0.0
2017-Oct-10 11:57N 46°12' W 123°48'0 0.0
2017-Oct-10 11:30N 46°12' W 123°48'0 0.0
2017-Oct-10 11:00N 46°12' W 123°48'0 0.0
2017-Oct-10 10:30N 46°12' W 123°48'0 0.0
2017-Oct-10 10:00N 46°12' W 123°48'0 0.0
2017-Oct-10 09:18N 46°12' W 123°48'0 0.0
2017-Oct-10 08:51N 46°12' W 123°48'0 0.0
2017-Oct-10 08:30N 46°12' W 123°48'0 0.0
2017-Oct-10 07:57N 46°12' W 123°48'0 0.0
2017-Oct-10 07:30N 46°12' W 123°48'0 0.0
2017-Oct-10 07:00N 46°12' W 123°48'0 0.0
2017-Oct-10 06:30N 46°12' W 123°48'0 0.0
2017-Oct-10 05:54N 46°12' W 123°48'0 0.0
2017-Oct-10 05:30N 46°12' W 123°48'0 0.0
2017-Oct-10 05:00N 46°12' W 123°48'0 0.0
2017-Oct-10 04:30N 46°12' W 123°48'0 0.0
2017-Oct-10 03:51N 46°12' W 123°48'0 0.0
2017-Oct-10 03:30N 46°12' W 123°48'  

Dump ship's entire track history